createdAt,value
2023-04-09T00:01:13.549Z,103008.44
2023-04-09T00:03:41.411Z,103006.81
2023-04-09T00:06:14.723Z,103007.25
2023-04-09T00:08:42.428Z,103005.72
2023-04-09T00:11:10.357Z,102998.91
2023-04-09T00:13:43.394Z,103004.78
2023-04-09T00:16:11.183Z,102999.31
2023-04-09T00:18:38.974Z,102993.75
2023-04-09T00:21:11.318Z,102998.78
2023-04-09T00:23:39.916Z,102975.50
2023-04-09T00:26:07.804Z,102987.50
2023-04-09T00:28:37.944Z,102992.25
2023-04-09T00:31:07.404Z,102983.38
2023-04-09T00:33:35.323Z,102989.66
2023-04-09T00:36:04.956Z,102979.25
2023-04-09T00:38:34.998Z,102991.22
2023-04-09T00:41:02.739Z,102983.63
2023-04-09T00:43:32.617Z,102957.28
2023-04-09T00:46:03.012Z,102983.56
2023-04-09T00:48:31.941Z,102981.34
2023-04-09T00:51:01.823Z,102975.31
2023-04-09T00:53:31.923Z,102984.50
2023-04-09T00:55:59.780Z,102980.22
2023-04-09T00:58:27.625Z,102968.63
2023-04-09T01:00:57.653Z,102969.16
2023-04-09T01:03:25.822Z,102949.50
2023-04-09T01:06:18.331Z,102937.66
2023-04-09T01:08:52.820Z,102977.38
2023-04-09T01:11:32.365Z,102949.22
2023-04-09T01:14:09.785Z,102938.53
2023-04-09T01:16:47.840Z,102982.97
2023-04-09T01:19:27.734Z,102976.50
2023-04-09T01:22:01.873Z,102972.56
2023-04-09T01:24:42.643Z,102969.03
2023-04-09T01:27:16.509Z,102983.63
2023-04-09T01:29:48.809Z,102975.13
2023-04-09T01:32:19.781Z,102968.81
2023-04-09T01:34:48.848Z,102970.31
2023-04-09T01:37:18.226Z,102923.03
2023-04-09T01:39:50.336Z,102940.03
2023-04-09T01:42:19.510Z,102963.13
2023-04-09T01:44:49.819Z,102959.97
2023-04-09T01:47:19.496Z,102963.34
2023-04-09T01:49:47.586Z,102968.41
2023-04-09T01:52:17.600Z,102966.22
2023-04-09T01:54:47.188Z,102975.16
2023-04-09T01:57:14.915Z,102977.06
2023-04-09T01:59:42.803Z,102973.56
2023-04-09T02:02:20.714Z,102972.16
2023-04-09T02:04:58.705Z,102974.47
2023-04-09T02:07:35.350Z,102979.09
2023-04-09T02:10:07.765Z,102980.94
2023-04-09T02:12:40.326Z,102979.03
2023-04-09T02:15:09.623Z,102977.53
2023-04-09T02:17:41.166Z,102980.97
2023-04-09T02:20:10.382Z,102980.88
2023-04-09T02:22:38.104Z,102953.75
2023-04-09T02:25:08.415Z,102973.34
2023-04-09T02:27:40.428Z,102982.63
2023-04-09T02:30:09.448Z,102980.72
2023-04-09T02:32:38.595Z,102983.41
2023-04-09T02:35:10.793Z,102981.66
2023-04-09T02:37:38.499Z,102988.75
2023-04-09T02:40:07.035Z,102985.88
2023-04-09T02:42:41.254Z,102980.28
2023-04-09T02:45:10.059Z,102980.88
2023-04-09T02:47:39.163Z,102979.16
2023-04-09T02:50:11.652Z,102982.97
2023-04-09T02:52:39.368Z,102944.03
2023-04-09T02:55:08.302Z,102969.31
2023-04-09T02:57:42.255Z,102986.00
2023-04-09T03:00:11.252Z,102985.94
2023-04-09T03:02:40.538Z,102983.41
2023-04-09T03:05:12.851Z,102985.78
2023-04-09T03:07:40.584Z,102977.47
2023-04-09T03:10:08.989Z,102988.69
2023-04-09T03:12:42.980Z,102980.19
2023-04-09T03:15:11.623Z,102981.41
2023-04-09T03:17:41.148Z,102949.72
2023-04-09T03:20:13.492Z,102989.66
2023-04-09T03:22:41.271Z,102981.03
2023-04-09T03:25:10.000Z,102981.16
2023-04-09T03:27:44.356Z,102953.50
2023-04-09T03:30:13.072Z,102958.53
2023-04-09T03:32:42.274Z,102971.16
2023-04-09T03:35:14.518Z,102960.09
2023-04-09T03:37:42.264Z,102975.34
2023-04-09T03:40:10.899Z,102972.84
2023-04-09T03:42:45.629Z,102979.25
2023-04-09T03:45:13.297Z,102975.94
2023-04-09T03:47:42.422Z,102977.69
2023-04-09T03:50:14.270Z,102977.94
2023-04-09T03:52:41.984Z,102972.34
2023-04-09T03:55:11.088Z,102979.50
2023-04-09T03:57:42.853Z,102982.91
2023-04-09T04:00:11.040Z,102981.50
2023-04-09T04:02:39.005Z,102980.03
2023-04-09T04:05:11.805Z,102987.81
2023-04-09T04:07:39.545Z,102976.50
2023-04-09T04:10:08.489Z,102956.50
2023-04-09T04:12:40.586Z,102982.28
2023-04-09T04:15:09.342Z,102979.47
2023-04-09T04:17:37.084Z,102982.66
2023-04-09T04:20:11.678Z,102981.81
2023-04-09T04:22:39.380Z,102980.84
2023-04-09T04:25:07.650Z,102963.03
2023-04-09T04:27:39.508Z,102987.44
2023-04-09T04:30:08.628Z,102983.41
2023-04-09T04:32:36.471Z,102985.31
2023-04-09T04:35:10.097Z,102981.97
2023-04-09T04:37:37.806Z,102989.31
2023-04-09T04:40:06.510Z,102987.19
2023-04-09T04:42:38.455Z,102984.50
2023-04-09T04:45:09.198Z,102989.69
2023-04-09T04:47:36.928Z,102979.16
2023-04-09T04:50:06.864Z,102984.84
2023-04-09T04:52:38.826Z,102984.31
2023-04-09T04:55:09.352Z,102989.66
2023-04-09T04:57:39.094Z,102988.53
2023-04-09T05:00:08.715Z,102988.94
2023-04-09T05:02:38.481Z,102984.16
2023-04-09T05:05:07.045Z,102986.13
2023-04-09T05:07:37.614Z,102980.16
2023-04-09T05:10:07.905Z,102982.44
2023-04-09T05:12:35.607Z,102987.91
2023-04-09T05:15:07.025Z,102995.81
2023-04-09T05:17:34.792Z,102972.94
2023-04-09T05:20:02.844Z,102995.03
2023-04-09T05:22:34.966Z,102990.84
2023-04-09T05:25:04.854Z,102998.09
2023-04-09T05:27:32.573Z,102995.06
2023-04-09T05:30:02.568Z,102993.69
2023-04-09T05:32:30.485Z,102998.44
2023-04-09T05:34:58.177Z,102992.00
2023-04-09T05:37:29.960Z,102976.09
2023-04-09T05:39:58.003Z,102991.22
2023-04-09T05:42:27.099Z,102983.94
2023-04-09T05:44:58.789Z,102990.38
2023-04-09T05:47:26.515Z,102990.63
2023-04-09T05:49:54.295Z,102993.72
2023-04-09T05:52:26.052Z,102989.56
2023-04-09T05:54:53.932Z,102986.56
2023-04-09T05:57:21.613Z,102995.53
2023-04-09T05:59:54.559Z,102988.75
2023-04-09T06:02:22.387Z,102990.81
2023-04-09T06:04:50.722Z,102989.81
2023-04-09T06:07:23.124Z,102989.91
2023-04-09T06:09:51.043Z,102988.81
2023-04-09T06:12:18.748Z,102983.31
2023-04-09T06:14:51.882Z,102985.88
2023-04-09T06:17:21.766Z,102984.63
2023-04-09T06:19:49.500Z,102951.84
2023-04-09T06:22:19.115Z,102991.06
2023-04-09T06:24:48.964Z,102984.31
2023-04-09T06:27:19.033Z,102972.03
2023-04-09T06:29:48.601Z,102995.44
2023-04-09T06:32:19.578Z,103001.41
2023-04-09T06:34:48.292Z,102994.47
2023-04-09T06:37:21.389Z,103005.34
2023-04-09T06:40:00.562Z,103002.84
2023-04-09T06:42:33.063Z,103000.25
2023-04-09T06:45:01.092Z,102936.13
2023-04-09T06:47:31.924Z,102994.78
2023-04-09T06:50:01.615Z,102992.88
2023-04-09T06:52:29.284Z,102995.97
2023-04-09T06:54:57.211Z,102993.84
2023-04-09T06:57:28.061Z,102998.97
2023-04-09T06:59:55.764Z,102998.19
2023-04-09T07:02:26.011Z,102994.38
2023-04-09T07:04:57.082Z,102992.41
2023-04-09T07:07:25.872Z,102993.47
2023-04-09T07:09:54.548Z,102937.09
2023-04-09T07:12:29.886Z,103007.50
2023-04-09T07:15:00.073Z,103004.06
2023-04-09T07:17:28.095Z,102999.03
2023-04-09T07:19:59.198Z,102996.94
2023-04-09T07:22:29.753Z,102999.84
2023-04-09T07:24:57.669Z,102991.69
2023-04-09T07:27:29.410Z,102993.31
2023-04-09T07:30:00.490Z,102995.31
2023-04-09T07:32:28.946Z,102989.72
2023-04-09T07:34:59.485Z,102994.69
2023-04-09T07:37:29.312Z,102993.13
2023-04-09T07:39:57.097Z,102993.84
2023-04-09T07:42:26.847Z,102966.41
2023-04-09T07:44:57.666Z,102996.00
2023-04-09T07:47:25.588Z,102990.56
2023-04-09T07:49:55.186Z,102990.63
2023-04-09T07:52:26.049Z,102994.03
2023-04-09T07:54:53.826Z,102996.34
2023-04-09T07:57:24.581Z,102998.34
2023-04-09T07:59:52.437Z,102990.84
2023-04-09T08:02:20.274Z,102989.13
2023-04-09T08:04:50.071Z,102995.91
2023-04-09T08:07:20.052Z,102995.00
2023-04-09T08:09:49.109Z,103001.06
2023-04-09T08:12:16.866Z,102974.66
2023-04-09T08:14:44.943Z,102989.19
2023-04-09T08:17:12.667Z,102987.69
2023-04-09T08:19:44.904Z,102988.63
2023-04-09T08:22:12.649Z,102988.75
2023-04-09T08:24:40.377Z,102986.19
2023-04-09T08:27:13.954Z,102983.59
2023-04-09T08:29:42.637Z,102971.59
2023-04-09T08:32:10.605Z,102966.44
2023-04-09T08:34:40.823Z,102978.50
2023-04-09T08:37:08.575Z,102977.66
2023-04-09T08:39:36.844Z,102975.13
2023-04-09T08:42:07.750Z,102977.69
2023-04-09T08:44:37.131Z,102966.47
2023-04-09T08:47:11.813Z,102973.38
2023-04-09T08:49:41.067Z,102971.63
2023-04-09T08:52:08.919Z,102969.91
2023-04-09T08:54:40.893Z,102965.50
2023-04-09T08:57:08.802Z,102963.69
2023-04-09T08:59:37.978Z,102968.97
2023-04-09T09:02:09.358Z,102923.44
2023-04-09T09:04:47.716Z,102961.19
2023-04-09T09:07:16.251Z,102954.03
2023-04-09T09:09:54.291Z,102942.25
2023-04-09T09:12:41.161Z,102959.19
2023-04-09T09:15:29.050Z,102949.69
2023-04-09T09:18:02.087Z,102951.09
2023-04-09T09:20:30.224Z,102946.66
2023-04-09T09:22:58.070Z,102944.59
2023-04-09T09:25:54.675Z,102942.16
2023-04-09T09:28:22.393Z,102934.56
2023-04-09T09:30:51.695Z,102951.03
2023-04-09T09:33:23.618Z,102905.41
2023-04-09T09:35:54.029Z,102936.06
2023-04-09T09:38:21.885Z,102927.78
2023-04-09T09:40:52.639Z,102923.41
2023-04-09T09:43:20.587Z,102932.56
2023-04-09T09:45:49.058Z,102928.69
2023-04-09T09:48:21.799Z,102928.06
2023-04-09T09:50:52.958Z,102919.47
2023-04-09T09:53:29.179Z,102911.03
2023-04-09T09:56:01.534Z,102922.59
2023-04-09T09:58:36.549Z,102925.84
2023-04-09T10:01:09.465Z,102927.19
2023-04-09T10:03:42.287Z,102921.91
2023-04-09T10:06:11.132Z,102891.09
2023-04-09T10:08:41.144Z,102922.63
2023-04-09T10:11:11.162Z,102924.81
2023-04-09T10:13:47.526Z,102920.03
2023-04-09T10:16:18.676Z,102919.81
2023-04-09T10:18:48.174Z,102918.63
2023-04-09T10:21:25.207Z,102916.56
2023-04-09T10:23:53.246Z,102902.69
2023-04-09T10:26:27.744Z,102902.34
2023-04-09T10:29:08.067Z,102901.78
2023-04-09T10:32:08.463Z,102900.13
2023-04-09T10:34:41.106Z,102893.06
2023-04-09T10:37:12.673Z,102898.97
2023-04-09T10:39:42.675Z,102889.44
2023-04-09T10:42:17.700Z,102895.53
2023-04-09T10:44:46.070Z,102902.59
2023-04-09T10:47:33.019Z,102903.84
2023-04-09T10:50:15.954Z,102895.16
2023-04-09T10:52:44.574Z,102858.78
2023-04-09T10:55:31.405Z,102897.56
2023-04-09T10:58:03.369Z,102900.41
2023-04-09T11:00:31.070Z,102898.13
2023-04-09T11:03:20.861Z,102903.53
2023-04-09T11:05:53.234Z,102893.56
2023-04-09T11:08:22.366Z,102892.28
2023-04-09T11:10:52.260Z,102900.28
2023-04-09T11:13:21.936Z,102888.41
2023-04-09T11:15:49.901Z,102892.63
2023-04-09T11:18:21.842Z,102874.31
2023-04-09T11:20:57.089Z,102898.94
2023-04-09T11:23:25.560Z,102899.38
2023-04-09T11:25:56.557Z,102892.72
2023-04-09T11:28:25.424Z,102905.38
2023-04-09T11:30:53.395Z,102906.47
2023-04-09T11:33:23.551Z,102897.06
2023-04-09T11:35:55.018Z,102896.78
2023-04-09T11:38:22.741Z,102896.47
2023-04-09T11:41:04.052Z,102898.13
2023-04-09T11:43:31.857Z,102896.66
2023-04-09T11:46:00.538Z,102892.56
2023-04-09T11:48:31.789Z,102897.84
2023-04-09T11:51:01.738Z,102884.47
2023-04-09T11:53:32.498Z,102895.09
2023-04-09T11:56:00.642Z,102894.94
2023-04-09T11:58:28.587Z,102892.09
2023-04-09T12:00:57.116Z,102890.25
2023-04-09T12:03:30.341Z,102888.66
2023-04-09T12:06:03.378Z,102851.00
2023-04-09T12:08:34.594Z,102881.91
2023-04-09T12:11:10.270Z,102883.34
2023-04-09T12:13:42.830Z,102889.03
2023-04-09T12:16:15.889Z,102887.38
2023-04-09T12:18:43.786Z,102891.47
2023-04-09T12:21:12.930Z,102892.63
2023-04-09T12:23:42.770Z,102892.16
2023-04-09T12:26:10.651Z,102886.84
2023-04-09T12:28:38.400Z,102891.41
2023-04-09T12:31:10.843Z,102885.25
2023-04-09T12:33:40.423Z,102891.69
2023-04-09T12:36:10.485Z,102887.06
2023-04-09T12:38:41.508Z,102895.41
2023-04-09T12:41:09.679Z,102836.44
2023-04-09T12:43:37.545Z,102895.09
2023-04-09T12:46:05.856Z,102883.69
2023-04-09T12:48:33.930Z,102885.34
2023-04-09T12:51:04.182Z,102882.09
2023-04-09T12:53:35.943Z,102881.38
2023-04-09T12:56:05.404Z,102885.50
2023-04-09T12:58:33.395Z,102886.94
2023-04-09T13:01:08.668Z,102881.56
2023-04-09T13:03:36.797Z,102833.47
2023-04-09T13:06:07.324Z,102890.34
2023-04-09T13:08:36.932Z,102882.00
2023-04-09T13:11:06.666Z,102876.53
2023-04-09T13:13:34.611Z,102842.63
2023-04-09T13:16:02.590Z,102847.63
2023-04-09T13:18:32.559Z,102874.56
2023-04-09T13:21:00.432Z,102867.81
2023-04-09T13:23:30.037Z,102863.25
2023-04-09T13:25:58.875Z,102862.78
2023-04-09T13:28:28.062Z,102863.28
2023-04-09T13:30:58.721Z,102861.47
2023-04-09T13:33:26.634Z,102867.53
2023-04-09T13:35:54.540Z,102855.09
2023-04-09T13:38:24.234Z,102863.34
2023-04-09T13:40:52.029Z,102863.25
2023-04-09T13:43:29.680Z,102837.09
2023-04-09T13:45:58.819Z,102861.25
2023-04-09T13:48:28.683Z,102850.59
2023-04-09T13:50:56.738Z,102863.09
2023-04-09T13:53:25.219Z,102862.81
2023-04-09T13:55:56.469Z,102856.47
2023-04-09T13:58:26.296Z,102859.06
2023-04-09T14:00:54.084Z,102839.59
2023-04-09T14:03:23.443Z,102846.81
2023-04-09T14:05:53.307Z,102846.91
2023-04-09T14:08:21.430Z,102844.50
2023-04-09T14:10:49.283Z,102843.84
2023-04-09T14:13:17.205Z,102840.69
2023-04-09T14:15:45.407Z,102833.16
2023-04-09T14:18:20.321Z,102840.88
2023-04-09T14:20:49.556Z,102842.75
2023-04-09T14:23:17.315Z,102842.75
2023-04-09T14:25:45.920Z,102831.66
2023-04-09T14:28:13.695Z,102833.63
2023-04-09T14:30:41.485Z,102836.34
2023-04-09T14:33:15.081Z,102832.47
2023-04-09T14:35:42.830Z,102830.41
2023-04-09T14:38:11.992Z,102830.53
2023-04-09T14:40:41.785Z,102831.94
2023-04-09T14:43:09.541Z,102827.03
2023-04-09T14:45:37.758Z,102828.94
2023-04-09T14:48:07.770Z,102833.63
2023-04-09T14:50:36.719Z,102804.88
2023-04-09T14:53:07.604Z,102826.81
2023-04-09T14:55:39.393Z,102831.78
2023-04-09T14:58:08.273Z,102831.00
2023-04-09T15:00:38.992Z,102829.88
2023-04-09T15:03:09.237Z,102830.88
2023-04-09T15:05:37.062Z,102833.34
2023-04-09T15:08:05.348Z,102824.78
2023-04-09T15:10:35.533Z,102833.44
2023-04-09T15:13:04.624Z,102828.09
2023-04-09T15:15:34.758Z,102829.06
2023-04-09T15:18:06.036Z,102838.06
2023-04-09T15:20:37.649Z,102833.78
2023-04-09T15:23:05.590Z,102827.78
2023-04-09T15:25:35.859Z,102832.13
2023-04-09T15:28:07.913Z,102820.44
2023-04-09T15:30:38.281Z,102811.38
2023-04-09T15:33:10.060Z,102833.41
2023-04-09T15:35:37.923Z,102834.22
2023-04-09T15:38:05.815Z,102835.31
2023-04-09T15:40:35.699Z,102839.69
2023-04-09T15:43:04.734Z,102839.94
2023-04-09T15:45:34.406Z,102838.75
2023-04-09T15:48:05.191Z,102829.81
2023-04-09T15:50:32.984Z,102843.09
2023-04-09T15:53:02.669Z,102836.03
2023-04-09T15:55:35.479Z,102844.53
2023-04-09T15:58:05.093Z,102841.34
2023-04-09T16:00:34.355Z,102834.00
2023-04-09T16:03:02.079Z,102831.09
2023-04-09T16:05:31.665Z,102799.38
2023-04-09T16:08:01.642Z,102794.22
2023-04-09T16:10:29.383Z,102837.78
2023-04-09T16:13:01.106Z,102845.06
2023-04-09T16:15:28.981Z,102846.34
2023-04-09T16:17:58.216Z,102844.41
2023-04-09T16:20:31.194Z,102813.66
2023-04-09T16:22:58.951Z,102853.28
2023-04-09T16:25:26.620Z,102857.97
2023-04-09T16:27:58.322Z,102852.78
2023-04-09T16:30:26.264Z,102853.69
2023-04-09T16:32:54.038Z,102848.28
2023-04-09T16:35:27.194Z,102859.28
2023-04-09T16:37:54.922Z,102854.31
2023-04-09T16:40:24.422Z,102852.97
2023-04-09T16:42:54.242Z,102856.13
2023-04-09T16:45:22.532Z,102837.91
2023-04-09T16:47:53.779Z,102869.25
2023-04-09T16:50:23.544Z,102869.34
2023-04-09T16:52:51.530Z,102869.53
2023-04-09T16:55:21.457Z,102863.59
2023-04-09T16:57:49.445Z,102831.00
2023-04-09T17:00:18.383Z,102863.75
2023-04-09T17:02:46.934Z,102843.25
2023-04-09T17:05:16.181Z,102872.50
2023-04-09T17:07:45.219Z,102870.84
2023-04-09T17:10:13.058Z,102868.38
2023-04-09T17:12:40.976Z,102873.50
2023-04-09T17:15:10.156Z,102869.25
2023-04-09T17:17:38.189Z,102867.56
2023-04-09T17:20:07.343Z,102865.06
2023-04-09T17:22:35.691Z,102874.56
2023-04-09T17:25:04.942Z,102875.47
2023-04-09T17:27:32.795Z,102871.13
2023-04-09T17:30:00.533Z,102877.16
2023-04-09T17:32:28.301Z,102876.31
2023-04-09T17:35:01.353Z,102877.16
2023-04-09T17:37:29.717Z,102880.47
2023-04-09T17:39:57.423Z,102884.66
2023-04-09T17:42:30.888Z,102887.94
2023-04-09T17:44:59.122Z,102888.00
2023-04-09T17:47:27.331Z,102893.88
2023-04-09T17:49:55.260Z,102887.66
2023-04-09T17:52:23.184Z,102895.25
2023-04-09T17:54:52.445Z,102886.53
2023-04-09T17:57:20.434Z,102891.53
2023-04-09T17:59:49.533Z,102886.97
2023-04-09T18:02:17.470Z,102902.97
2023-04-09T18:04:49.621Z,102907.19
2023-04-09T18:07:17.432Z,102899.41
2023-04-09T18:09:45.167Z,102878.50
2023-04-09T18:12:16.900Z,102907.63
2023-04-09T18:14:44.597Z,102908.28
2023-04-09T18:17:15.194Z,102912.47
2023-04-09T18:19:48.271Z,102911.44
2023-04-09T18:22:16.543Z,102909.41
2023-04-09T18:24:44.277Z,102911.00
2023-04-09T18:27:16.168Z,102911.78
2023-04-09T18:29:46.609Z,102910.56
2023-04-09T18:32:15.542Z,102915.38
2023-04-09T18:34:47.179Z,102915.16
2023-04-09T18:37:15.212Z,102922.81
2023-04-09T18:39:43.048Z,102930.84
2023-04-09T18:42:15.305Z,102929.66
2023-04-09T18:44:43.136Z,102929.66
2023-04-09T18:47:11.839Z,102888.13
2023-04-09T18:49:43.194Z,102921.91
2023-04-09T18:52:11.058Z,102935.19
2023-04-09T18:54:39.065Z,102933.97
2023-04-09T18:57:07.576Z,102937.97
2023-04-09T18:59:35.841Z,102937.91
2023-04-09T19:02:04.765Z,102935.91
2023-04-09T19:04:36.458Z,102934.84
2023-04-09T19:07:06.619Z,102933.72
2023-04-09T19:09:37.578Z,102932.34
2023-04-09T19:12:08.662Z,102912.44
2023-04-09T19:14:36.859Z,102932.22
2023-04-09T19:17:06.628Z,102914.00
2023-04-09T19:19:34.339Z,102938.84
2023-04-09T19:22:02.162Z,102939.19
2023-04-09T19:24:33.544Z,102933.84
2023-04-09T19:27:08.070Z,102943.72
2023-04-09T19:29:36.276Z,102914.19
2023-04-09T19:32:04.279Z,102945.63
2023-04-09T19:34:32.077Z,102941.31
2023-04-09T19:37:04.349Z,102943.47
2023-04-09T19:39:33.463Z,102946.59
2023-04-09T19:42:02.714Z,102949.19
2023-04-09T19:44:33.010Z,102911.75
2023-04-09T19:47:00.864Z,102946.72
2023-04-09T19:49:29.332Z,102923.28
2023-04-09T19:52:01.291Z,102948.88
2023-04-09T19:54:29.008Z,102940.28
2023-04-09T19:56:58.093Z,102953.56
2023-04-09T19:59:30.926Z,102945.75
2023-04-09T20:01:59.887Z,102937.81
2023-04-09T20:04:30.183Z,102946.47
2023-04-09T20:07:00.326Z,102951.22
2023-04-09T20:09:29.144Z,102951.03
2023-04-09T20:12:06.148Z,102945.41
2023-04-09T20:14:38.130Z,102946.81
2023-04-09T20:17:06.391Z,102944.78
2023-04-09T20:19:44.356Z,102953.25
2023-04-09T20:22:12.263Z,102953.94
2023-04-09T20:24:40.216Z,102941.41
2023-04-09T20:27:13.326Z,102919.22
2023-04-09T20:29:41.093Z,102953.38
2023-04-09T20:32:08.932Z,102956.16
2023-04-09T20:34:38.929Z,102887.31
2023-04-09T20:37:06.778Z,102951.53
2023-04-09T20:39:34.508Z,102895.03
2023-04-09T20:42:02.435Z,102952.25
2023-04-09T20:44:31.819Z,102950.56
2023-04-09T20:47:01.691Z,102937.41
2023-04-09T20:49:29.455Z,102956.72
2023-04-09T20:51:57.159Z,102954.91
2023-04-09T20:54:27.550Z,102953.16
2023-04-09T20:56:55.333Z,102955.56
2023-04-09T20:59:23.515Z,102946.00
2023-04-09T21:01:55.413Z,102957.25
2023-04-09T21:04:24.130Z,102960.00
2023-04-09T21:06:51.984Z,102937.31
2023-04-09T21:09:21.840Z,102937.59
2023-04-09T21:11:49.620Z,102957.75
2023-04-09T21:14:17.312Z,102954.53
2023-04-09T21:16:47.518Z,102955.53
2023-04-09T21:19:18.564Z,102945.38
2023-04-09T21:21:46.347Z,102951.13
2023-04-09T21:24:16.949Z,102952.81
2023-04-09T21:26:51.652Z,102949.63
2023-04-09T21:29:22.339Z,102948.69
2023-04-09T21:31:52.066Z,102952.38
2023-04-09T21:34:21.282Z,102957.63
2023-04-09T21:36:51.255Z,102946.94
2023-04-09T21:39:20.909Z,102951.66
2023-04-09T21:41:48.611Z,102947.22
2023-04-09T21:44:19.012Z,102937.38
2023-04-09T21:46:49.452Z,102946.78
2023-04-09T21:49:17.299Z,102945.41
2023-04-09T21:51:48.587Z,102946.31
2023-04-09T21:54:18.139Z,102943.22
2023-04-09T21:56:46.381Z,102937.06
2023-04-09T21:59:16.464Z,102939.19
2023-04-09T22:01:49.430Z,102944.34
2023-04-09T22:04:18.137Z,102945.72
2023-04-09T22:06:47.907Z,102942.25
2023-04-09T22:09:15.588Z,102943.94
2023-04-09T22:11:46.408Z,102942.69
2023-04-09T22:14:17.161Z,102939.13
2023-04-09T22:16:44.910Z,102942.88
2023-04-09T22:19:15.373Z,102941.94
2023-04-09T22:21:44.776Z,102938.19
2023-04-09T22:24:15.446Z,102937.91
2023-04-09T22:26:48.685Z,102936.75
2023-04-09T22:29:16.625Z,102939.25
2023-04-09T22:31:44.555Z,102936.72
2023-04-09T22:34:21.184Z,102943.03
2023-04-09T22:36:49.741Z,102866.47
2023-04-09T22:39:23.646Z,102935.16
2023-04-09T22:41:51.337Z,102917.69
2023-04-09T22:44:19.108Z,102934.16
2023-04-09T22:46:50.841Z,102935.47
2023-04-09T22:49:20.728Z,102938.75
2023-04-09T22:51:48.443Z,102935.09
2023-04-09T22:54:18.041Z,102933.97
2023-04-09T22:56:48.890Z,102931.16
2023-04-09T22:59:17.065Z,102942.25
2023-04-09T23:01:47.217Z,102935.56
2023-04-09T23:04:19.838Z,102932.19
2023-04-09T23:06:47.508Z,102921.44
2023-04-09T23:09:15.260Z,102941.66
2023-04-09T23:11:44.932Z,102937.25
2023-04-09T23:14:14.370Z,102941.41
2023-04-09T23:16:42.110Z,102943.78
2023-04-09T23:19:14.583Z,102943.78
2023-04-09T23:21:42.267Z,102941.75
2023-04-09T23:24:09.942Z,102945.72
2023-04-09T23:26:41.694Z,102947.09
2023-04-09T23:29:09.373Z,102947.59
2023-04-09T23:31:38.419Z,102940.09
2023-04-09T23:34:10.180Z,102948.16
2023-04-09T23:36:37.900Z,102942.03
2023-04-09T23:39:05.617Z,102948.59
2023-04-09T23:41:38.620Z,102947.50
2023-04-09T23:44:06.313Z,102939.69
2023-04-09T23:46:34.088Z,102926.63
2023-04-09T23:49:06.843Z,102944.44
2023-04-09T23:51:34.510Z,102939.56
2023-04-09T23:54:03.071Z,102936.63
2023-04-09T23:56:34.780Z,102938.63
2023-04-09T23:59:02.693Z,102883.88
